sensor_id;sensor_type;location;lat;lon;timestamp;P1;durP1;ratioP1;P2;durP2;ratioP2
59024;SDS011;44806;48.008;13.666;2023-03-26T00:01:21;8.13;;;7.43;;
59024;SDS011;44806;48.008;13.666;2023-03-26T00:03:49;7.45;;;6.80;;
59024;SDS011;44806;48.008;13.666;2023-03-26T00:06:19;7.53;;;6.78;;
59024;SDS011;44806;48.008;13.666;2023-03-26T00:08:49;6.35;;;5.82;;
59024;SDS011;44806;48.008;13.666;2023-03-26T00:11:17;6.25;;;5.60;;
59024;SDS011;44806;48.008;13.666;2023-03-26T00:13:46;6.10;;;5.63;;
59024;SDS011;44806;48.008;13.666;2023-03-26T00:16:14;10.48;;;8.07;;
59024;SDS011;44806;48.008;13.666;2023-03-26T00:18:42;7.57;;;7.13;;
59024;SDS011;44806;48.008;13.666;2023-03-26T00:21:11;8.27;;;6.95;;
59024;SDS011;44806;48.008;13.666;2023-03-26T00:23:39;8.05;;;6.63;;
59024;SDS011;44806;48.008;13.666;2023-03-26T00:26:08;11.93;;;10.70;;
59024;SDS011;44806;48.008;13.666;2023-03-26T00:28:38;17.95;;;11.27;;
59024;SDS011;44806;48.008;13.666;2023-03-26T00:31:07;7.57;;;6.07;;
59024;SDS011;44806;48.008;13.666;2023-03-26T00:33:36;12.98;;;10.57;;
59024;SDS011;44806;48.008;13.666;2023-03-26T00:36:05;21.80;;;13.23;;
59024;SDS011;44806;48.008;13.666;2023-03-26T00:38:35;9.48;;;8.68;;
59024;SDS011;44806;48.008;13.666;2023-03-26T00:41:03;10.30;;;9.30;;
59024;SDS011;44806;48.008;13.666;2023-03-26T00:43:33;11.90;;;9.93;;
59024;SDS011;44806;48.008;13.666;2023-03-26T00:46:01;7.13;;;6.70;;
59024;SDS011;44806;48.008;13.666;2023-03-26T00:48:29;13.95;;;10.82;;
59024;SDS011;44806;48.008;13.666;2023-03-26T00:50:58;15.98;;;10.98;;
59024;SDS011;44806;48.008;13.666;2023-03-26T00:53:25;30.00;;;15.70;;
59024;SDS011;44806;48.008;13.666;2023-03-26T00:55:52;20.05;;;10.52;;
59024;SDS011;44806;48.008;13.666;2023-03-26T00:58:24;9.02;;;8.20;;
59024;SDS011;44806;48.008;13.666;2023-03-26T01:00:54;41.47;;;18.50;;
59024;SDS011;44806;48.008;13.666;2023-03-26T01:03:23;17.77;;;12.93;;
59024;SDS011;44806;48.008;13.666;2023-03-26T01:05:55;10.13;;;9.23;;
59024;SDS011;44806;48.008;13.666;2023-03-26T01:08:27;17.92;;;10.88;;
59024;SDS011;44806;48.008;13.666;2023-03-26T01:10:57;23.92;;;13.90;;
59024;SDS011;44806;48.008;13.666;2023-03-26T01:13:32;10.77;;;9.70;;
59024;SDS011;44806;48.008;13.666;2023-03-26T01:16:03;7.05;;;6.43;;
59024;SDS011;44806;48.008;13.666;2023-03-26T01:18:35;21.75;;;13.25;;
59024;SDS011;44806;48.008;13.666;2023-03-26T01:21:05;28.55;;;16.05;;
59024;SDS011;44806;48.008;13.666;2023-03-26T01:23:39;28.70;;;13.35;;
59024;SDS011;44806;48.008;13.666;2023-03-26T01:26:22;20.00;;;12.15;;
59024;SDS011;44806;48.008;13.666;2023-03-26T01:28:57;28.50;;;9.75;;
59024;SDS011;44806;48.008;13.666;2023-03-26T01:31:29;51.00;;;19.17;;
59024;SDS011;44806;48.008;13.666;2023-03-26T01:34:03;20.10;;;10.50;;
59024;SDS011;44806;48.008;13.666;2023-03-26T01:36:38;29.85;;;16.45;;
59024;SDS011;44806;48.008;13.666;2023-03-26T01:39:12;11.98;;;9.77;;
59024;SDS011;44806;48.008;13.666;2023-03-26T01:41:50;16.73;;;14.98;;
59024;SDS011;44806;48.008;13.666;2023-03-26T01:44:23;6.43;;;5.78;;
59024;SDS011;44806;48.008;13.666;2023-03-26T01:46:55;19.20;;;12.68;;
59024;SDS011;44806;48.008;13.666;2023-03-26T01:49:25;5.75;;;5.28;;
59024;SDS011;44806;48.008;13.666;2023-03-26T01:51:53;6.90;;;6.32;;
59024;SDS011;44806;48.008;13.666;2023-03-26T01:54:22;13.82;;;11.45;;
59024;SDS011;44806;48.008;13.666;2023-03-26T01:56:56;19.30;;;13.43;;
59024;SDS011;44806;48.008;13.666;2023-03-26T01:59:35;28.75;;;20.33;;
59024;SDS011;44806;48.008;13.666;2023-03-26T02:02:13;25.75;;;16.85;;
59024;SDS011;44806;48.008;13.666;2023-03-26T02:04:48;13.38;;;10.55;;
59024;SDS011;44806;48.008;13.666;2023-03-26T02:07:20;9.50;;;8.10;;
59024;SDS011;44806;48.008;13.666;2023-03-26T02:09:53;21.02;;;12.77;;
59024;SDS011;44806;48.008;13.666;2023-03-26T02:12:25;16.27;;;13.00;;
59024;SDS011;44806;48.008;13.666;2023-03-26T02:14:54;12.68;;;10.52;;
59024;SDS011;44806;48.008;13.666;2023-03-26T02:17:21;8.35;;;7.53;;
59024;SDS011;44806;48.008;13.666;2023-03-26T02:19:48;8.88;;;8.02;;
59024;SDS011;44806;48.008;13.666;2023-03-26T02:22:16;9.52;;;7.47;;
59024;SDS011;44806;48.008;13.666;2023-03-26T02:24:43;9.73;;;8.88;;
59024;SDS011;44806;48.008;13.666;2023-03-26T02:27:10;10.63;;;9.63;;
59024;SDS011;44806;48.008;13.666;2023-03-26T02:29:39;8.05;;;6.97;;
59024;SDS011;44806;48.008;13.666;2023-03-26T02:32:07;24.50;;;14.65;;
59024;SDS011;44806;48.008;13.666;2023-03-26T02:34:37;9.45;;;8.65;;
59024;SDS011;44806;48.008;13.666;2023-03-26T02:37:04;9.35;;;8.45;;
59024;SDS011;44806;48.008;13.666;2023-03-26T02:39:31;9.60;;;8.50;;
59024;SDS011;44806;48.008;13.666;2023-03-26T02:41:58;21.92;;;11.75;;
59024;SDS011;44806;48.008;13.666;2023-03-26T02:44:25;17.35;;;13.05;;
59024;SDS011;44806;48.008;13.666;2023-03-26T02:46:53;10.20;;;8.32;;
59024;SDS011;44806;48.008;13.666;2023-03-26T02:49:20;8.95;;;6.72;;
59024;SDS011;44806;48.008;13.666;2023-03-26T02:51:47;10.40;;;9.32;;
59024;SDS011;44806;48.008;13.666;2023-03-26T02:54:14;16.95;;;10.23;;
59024;SDS011;44806;48.008;13.666;2023-03-26T02:56:42;24.50;;;14.63;;
59024;SDS011;44806;48.008;13.666;2023-03-26T02:59:09;13.77;;;10.63;;
59024;SDS011;44806;48.008;13.666;2023-03-26T03:01:36;35.50;;;18.45;;
59024;SDS011;44806;48.008;13.666;2023-03-26T03:04:08;7.93;;;7.25;;
59024;SDS011;44806;48.008;13.666;2023-03-26T03:06:35;8.18;;;7.40;;
59024;SDS011;44806;48.008;13.666;2023-03-26T03:09:04;8.23;;;7.50;;
59024;SDS011;44806;48.008;13.666;2023-03-26T03:11:32;7.50;;;6.80;;
59024;SDS011;44806;48.008;13.666;2023-03-26T03:14:00;9.60;;;8.63;;
59024;SDS011;44806;48.008;13.666;2023-03-26T03:16:27;11.40;;;9.52;;
59024;SDS011;44806;48.008;13.666;2023-03-26T03:18:55;14.63;;;9.90;;
59024;SDS011;44806;48.008;13.666;2023-03-26T03:21:25;6.88;;;5.93;;
59024;SDS011;44806;48.008;13.666;2023-03-26T03:23:53;26.25;;;16.00;;
59024;SDS011;44806;48.008;13.666;2023-03-26T03:26:21;6.57;;;5.95;;
59024;SDS011;44806;48.008;13.666;2023-03-26T03:28:51;14.13;;;9.57;;
59024;SDS011;44806;48.008;13.666;2023-03-26T03:31:19;5.80;;;5.35;;
59024;SDS011;44806;48.008;13.666;2023-03-26T03:33:47;18.05;;;11.15;;
59024;SDS011;44806;48.008;13.666;2023-03-26T03:36:14;19.10;;;12.10;;
59024;SDS011;44806;48.008;13.666;2023-03-26T03:38:44;14.68;;;8.70;;
59024;SDS011;44806;48.008;13.666;2023-03-26T03:41:11;9.52;;;8.13;;
59024;SDS011;44806;48.008;13.666;2023-03-26T03:43:38;23.23;;;17.27;;
59024;SDS011;44806;48.008;13.666;2023-03-26T03:46:05;13.73;;;9.75;;
59024;SDS011;44806;48.008;13.666;2023-03-26T03:48:32;8.55;;;7.82;;
59024;SDS011;44806;48.008;13.666;2023-03-26T03:51:03;13.93;;;11.63;;
59024;SDS011;44806;48.008;13.666;2023-03-26T03:53:31;8.15;;;7.50;;
59024;SDS011;44806;48.008;13.666;2023-03-26T03:56:02;13.75;;;11.07;;
59024;SDS011;44806;48.008;13.666;2023-03-26T03:58:34;15.43;;;12.15;;
59024;SDS011;44806;48.008;13.666;2023-03-26T04:01:01;16.45;;;10.15;;
59024;SDS011;44806;48.008;13.666;2023-03-26T04:03:29;7.60;;;6.85;;
59024;SDS011;44806;48.008;13.666;2023-03-26T04:05:56;14.55;;;9.18;;
59024;SDS011;44806;48.008;13.666;2023-03-26T04:08:23;15.75;;;9.52;;
59024;SDS011;44806;48.008;13.666;2023-03-26T04:10:50;13.52;;;9.15;;
59024;SDS011;44806;48.008;13.666;2023-03-26T04:13:18;17.17;;;11.82;;
59024;SDS011;44806;48.008;13.666;2023-03-26T04:15:46;17.05;;;11.52;;
59024;SDS011;44806;48.008;13.666;2023-03-26T04:18:13;15.43;;;11.70;;
59024;SDS011;44806;48.008;13.666;2023-03-26T04:20:40;18.98;;;11.73;;
59024;SDS011;44806;48.008;13.666;2023-03-26T04:23:10;9.63;;;8.48;;
59024;SDS011;44806;48.008;13.666;2023-03-26T04:25:38;5.15;;;4.68;;
59024;SDS011;44806;48.008;13.666;2023-03-26T04:28:06;9.32;;;8.00;;
59024;SDS011;44806;48.008;13.666;2023-03-26T04:30:40;13.73;;;10.73;;
59024;SDS011;44806;48.008;13.666;2023-03-26T04:33:09;18.52;;;12.10;;
59024;SDS011;44806;48.008;13.666;2023-03-26T04:35:39;10.88;;;8.18;;
59024;SDS011;44806;48.008;13.666;2023-03-26T04:38:08;11.57;;;9.77;;
59024;SDS011;44806;48.008;13.666;2023-03-26T04:40:36;11.07;;;7.15;;
59024;SDS011;44806;48.008;13.666;2023-03-26T04:43:03;16.75;;;11.18;;
59024;SDS011;44806;48.008;13.666;2023-03-26T04:45:30;13.57;;;8.10;;
59024;SDS011;44806;48.008;13.666;2023-03-26T04:47:59;9.65;;;7.25;;
59024;SDS011;44806;48.008;13.666;2023-03-26T04:50:26;8.20;;;7.53;;
59024;SDS011;44806;48.008;13.666;2023-03-26T04:52:53;14.88;;;9.20;;
59024;SDS011;44806;48.008;13.666;2023-03-26T04:55:23;6.97;;;6.32;;
59024;SDS011;44806;48.008;13.666;2023-03-26T04:57:54;16.67;;;12.73;;
59024;SDS011;44806;48.008;13.666;2023-03-26T05:00:24;8.23;;;7.47;;
59024;SDS011;44806;48.008;13.666;2023-03-26T05:02:52;8.45;;;6.15;;
59024;SDS011;44806;48.008;13.666;2023-03-26T05:05:23;6.80;;;6.22;;
59024;SDS011;44806;48.008;13.666;2023-03-26T05:07:51;12.82;;;9.50;;
59024;SDS011;44806;48.008;13.666;2023-03-26T05:10:18;12.88;;;10.65;;
59024;SDS011;44806;48.008;13.666;2023-03-26T05:12:45;10.20;;;9.10;;
59024;SDS011;44806;48.008;13.666;2023-03-26T05:15:13;11.27;;;9.35;;
59024;SDS011;44806;48.008;13.666;2023-03-26T05:17:41;10.98;;;8.95;;
59024;SDS011;44806;48.008;13.666;2023-03-26T05:20:13;13.60;;;10.63;;
59024;SDS011;44806;48.008;13.666;2023-03-26T05:22:46;10.48;;;8.88;;
59024;SDS011;44806;48.008;13.666;2023-03-26T05:25:14;11.80;;;8.52;;
59024;SDS011;44806;48.008;13.666;2023-03-26T05:27:41;9.75;;;8.32;;
59024;SDS011;44806;48.008;13.666;2023-03-26T05:30:12;15.48;;;10.88;;
59024;SDS011;44806;48.008;13.666;2023-03-26T05:32:40;18.75;;;11.63;;
59024;SDS011;44806;48.008;13.666;2023-03-26T05:35:08;13.23;;;11.00;;
59024;SDS011;44806;48.008;13.666;2023-03-26T05:37:36;8.60;;;7.90;;
59024;SDS011;44806;48.008;13.666;2023-03-26T05:40:11;19.25;;;12.15;;
59024;SDS011;44806;48.008;13.666;2023-03-26T05:42:40;20.52;;;10.32;;
59024;SDS011;44806;48.008;13.666;2023-03-26T05:45:08;19.05;;;10.52;;
59024;SDS011;44806;48.008;13.666;2023-03-26T05:47:36;23.30;;;13.38;;
59024;SDS011;44806;48.008;13.666;2023-03-26T05:50:04;10.95;;;8.20;;
59024;SDS011;44806;48.008;13.666;2023-03-26T05:52:32;11.35;;;8.98;;
59024;SDS011;44806;48.008;13.666;2023-03-26T05:55:00;7.07;;;6.55;;
59024;SDS011;44806;48.008;13.666;2023-03-26T05:57:29;13.45;;;8.07;;
59024;SDS011;44806;48.008;13.666;2023-03-26T05:59:56;7.90;;;7.22;;
59024;SDS011;44806;48.008;13.666;2023-03-26T06:02:23;8.52;;;7.32;;
59024;SDS011;44806;48.008;13.666;2023-03-26T06:04:50;19.30;;;13.05;;
59024;SDS011;44806;48.008;13.666;2023-03-26T06:07:17;24.42;;;15.90;;
59024;SDS011;44806;48.008;13.666;2023-03-26T06:09:45;18.77;;;12.98;;
59024;SDS011;44806;48.008;13.666;2023-03-26T06:12:12;9.05;;;6.93;;
59024;SDS011;44806;48.008;13.666;2023-03-26T06:14:40;10.55;;;8.27;;
59024;SDS011;44806;48.008;13.666;2023-03-26T06:17:08;16.20;;;10.77;;
59024;SDS011;44806;48.008;13.666;2023-03-26T06:19:35;17.25;;;12.02;;
59024;SDS011;44806;48.008;13.666;2023-03-26T06:22:03;8.93;;;8.07;;
59024;SDS011;44806;48.008;13.666;2023-03-26T06:24:30;31.35;;;14.40;;
59024;SDS011;44806;48.008;13.666;2023-03-26T06:26:58;11.13;;;9.95;;
59024;SDS011;44806;48.008;13.666;2023-03-26T06:29:25;16.45;;;11.00;;
59024;SDS011;44806;48.008;13.666;2023-03-26T06:31:54;22.13;;;14.25;;
59024;SDS011;44806;48.008;13.666;2023-03-26T06:34:20;19.92;;;12.95;;
59024;SDS011;44806;48.008;13.666;2023-03-26T06:36:48;12.32;;;10.65;;
59024;SDS011;44806;48.008;13.666;2023-03-26T06:39:16;19.13;;;14.38;;
59024;SDS011;44806;48.008;13.666;2023-03-26T06:41:43;27.98;;;14.80;;
59024;SDS011;44806;48.008;13.666;2023-03-26T06:44:10;15.68;;;11.50;;
59024;SDS011;44806;48.008;13.666;2023-03-26T06:46:37;12.32;;;9.07;;
59024;SDS011;44806;48.008;13.666;2023-03-26T06:49:06;12.05;;;10.02;;
59024;SDS011;44806;48.008;13.666;2023-03-26T06:51:33;9.10;;;8.20;;
59024;SDS011;44806;48.008;13.666;2023-03-26T06:54:00;20.15;;;13.00;;
59024;SDS011;44806;48.008;13.666;2023-03-26T06:56:27;11.27;;;8.70;;
59024;SDS011;44806;48.008;13.666;2023-03-26T06:58:54;10.73;;;8.20;;
59024;SDS011;44806;48.008;13.666;2023-03-26T07:01:21;11.55;;;8.55;;
59024;SDS011;44806;48.008;13.666;2023-03-26T07:03:48;17.40;;;10.45;;
59024;SDS011;44806;48.008;13.666;2023-03-26T07:06:16;10.35;;;8.88;;
59024;SDS011;44806;48.008;13.666;2023-03-26T07:08:43;9.02;;;8.13;;
59024;SDS011;44806;48.008;13.666;2023-03-26T07:11:10;25.60;;;15.40;;
59024;SDS011;44806;48.008;13.666;2023-03-26T07:13:40;11.07;;;9.38;;
59024;SDS011;44806;48.008;13.666;2023-03-26T07:16:07;17.02;;;10.45;;
59024;SDS011;44806;48.008;13.666;2023-03-26T07:18:35;26.80;;;14.20;;
59024;SDS011;44806;48.008;13.666;2023-03-26T07:21:02;8.30;;;7.63;;
59024;SDS011;44806;48.008;13.666;2023-03-26T07:23:31;12.90;;;8.88;;
59024;SDS011;44806;48.008;13.666;2023-03-26T07:25:58;9.57;;;8.40;;
59024;SDS011;44806;48.008;13.666;2023-03-26T07:28:37;7.38;;;6.72;;
59024;SDS011;44806;48.008;13.666;2023-03-26T07:31:15;28.65;;;16.98;;
59024;SDS011;44806;48.008;13.666;2023-03-26T07:33:52;13.35;;;10.35;;
59024;SDS011;44806;48.008;13.666;2023-03-26T07:36:28;7.70;;;6.95;;
59024;SDS011;44806;48.008;13.666;2023-03-26T07:39:05;13.73;;;12.35;;
59024;SDS011;44806;48.008;13.666;2023-03-26T07:41:42;16.05;;;12.65;;
59024;SDS011;44806;48.008;13.666;2023-03-26T07:44:24;11.13;;;8.68;;
59024;SDS011;44806;48.008;13.666;2023-03-26T07:47:08;9.50;;;8.70;;
59024;SDS011;44806;48.008;13.666;2023-03-26T07:49:44;9.15;;;8.18;;
59024;SDS011;44806;48.008;13.666;2023-03-26T07:52:11;13.32;;;7.72;;
59024;SDS011;44806;48.008;13.666;2023-03-26T07:54:40;11.90;;;8.38;;
59024;SDS011;44806;48.008;13.666;2023-03-26T07:57:10;16.10;;;11.45;;
59024;SDS011;44806;48.008;13.666;2023-03-26T07:59:45;14.65;;;5.15;;
59024;SDS011;44806;48.008;13.666;2023-03-26T08:02:20;20.33;;;9.88;;
59024;SDS011;44806;48.008;13.666;2023-03-26T08:05:03;19.85;;;12.30;;
59024;SDS011;44806;48.008;13.666;2023-03-26T08:07:47;18.23;;;13.23;;
59024;SDS011;44806;48.008;13.666;2023-03-26T08:10:22;18.88;;;12.40;;
59024;SDS011;44806;48.008;13.666;2023-03-26T08:12:54;15.38;;;10.98;;
59024;SDS011;44806;48.008;13.666;2023-03-26T08:15:27;26.70;;;16.73;;
59024;SDS011;44806;48.008;13.666;2023-03-26T08:17:58;14.38;;;10.88;;
59024;SDS011;44806;48.008;13.666;2023-03-26T08:20:34;34.50;;;19.25;;
59024;SDS011;44806;48.008;13.666;2023-03-26T08:23:11;21.38;;;13.65;;
59024;SDS011;44806;48.008;13.666;2023-03-26T08:25:55;17.30;;;14.25;;
59024;SDS011;44806;48.008;13.666;2023-03-26T08:28:38;20.25;;;13.55;;
59024;SDS011;44806;48.008;13.666;2023-03-26T08:31:20;7.07;;;6.43;;
59024;SDS011;44806;48.008;13.666;2023-03-26T08:33:53;9.77;;;8.55;;
59024;SDS011;44806;48.008;13.666;2023-03-26T08:36:20;12.70;;;9.88;;
59024;SDS011;44806;48.008;13.666;2023-03-26T08:38:47;10.80;;;9.25;;
59024;SDS011;44806;48.008;13.666;2023-03-26T08:41:32;9.77;;;8.93;;
59024;SDS011;44806;48.008;13.666;2023-03-26T08:47:41;11.30;;;10.35;;
59024;SDS011;44806;48.008;13.666;2023-03-26T08:50:50;12.77;;;9.63;;
59024;SDS011;44806;48.008;13.666;2023-03-26T08:53:42;15.00;;;13.63;;
59024;SDS011;44806;48.008;13.666;2023-03-26T08:56:40;27.17;;;18.10;;
59024;SDS011;44806;48.008;13.666;2023-03-26T09:02:34;22.60;;;17.15;;
59024;SDS011;44806;48.008;13.666;2023-03-26T09:05:32;17.27;;;13.77;;
59024;SDS011;44806;48.008;13.666;2023-03-26T09:17:54;11.27;;;9.52;;
59024;SDS011;44806;48.008;13.666;2023-03-26T09:24:32;32.10;;;19.70;;
59024;SDS011;44806;48.008;13.666;2023-03-26T09:27:32;11.13;;;10.18;;
59024;SDS011;44806;48.008;13.666;2023-03-26T09:30:09;8.43;;;7.88;;
59024;SDS011;44806;48.008;13.666;2023-03-26T09:33:08;37.15;;;19.25;;
59024;SDS011;44806;48.008;13.666;2023-03-26T09:35:53;20.73;;;17.38;;
59024;SDS011;44806;48.008;13.666;2023-03-26T09:38:40;24.58;;;16.05;;
59024;SDS011;44806;48.008;13.666;2023-03-26T09:41:21;12.95;;;8.77;;
59024;SDS011;44806;48.008;13.666;2023-03-26T09:47:20;91.25;;;41.90;;
59024;SDS011;44806;48.008;13.666;2023-03-26T09:50:16;23.92;;;15.18;;
59024;SDS011;44806;48.008;13.666;2023-03-26T09:53:04;7.25;;;6.63;;
59024;SDS011;44806;48.008;13.666;2023-03-26T09:58:45;33.53;;;16.45;;
59024;SDS011;44806;48.008;13.666;2023-03-26T10:01:25;74.57;;;44.92;;
59024;SDS011;44806;48.008;13.666;2023-03-26T10:04:08;22.42;;;14.40;;
59024;SDS011;44806;48.008;13.666;2023-03-26T10:07:00;10.43;;;9.48;;
59024;SDS011;44806;48.008;13.666;2023-03-26T10:09:37;9.23;;;8.48;;
59024;SDS011;44806;48.008;13.666;2023-03-26T10:12:20;12.45;;;11.20;;
59024;SDS011;44806;48.008;13.666;2023-03-26T10:15:00;7.53;;;6.43;;
59024;SDS011;44806;48.008;13.666;2023-03-26T10:17:45;11.50;;;10.32;;
59024;SDS011;44806;48.008;13.666;2023-03-26T10:20:30;78.50;;;42.00;;
59024;SDS011;44806;48.008;13.666;2023-03-26T10:26:28;6.23;;;5.73;;
59024;SDS011;44806;48.008;13.666;2023-03-26T10:29:30;64.45;;;36.10;;
59024;SDS011;44806;48.008;13.666;2023-03-26T10:32:14;53.25;;;25.50;;
59024;SDS011;44806;48.008;13.666;2023-03-26T10:35:02;58.25;;;22.70;;
59024;SDS011;44806;48.008;13.666;2023-03-26T10:37:46;16.55;;;14.70;;
59024;SDS011;44806;48.008;13.666;2023-03-26T10:40:23;43.42;;;26.30;;
59024;SDS011;44806;48.008;13.666;2023-03-26T10:43:07;14.38;;;10.10;;
59024;SDS011;44806;48.008;13.666;2023-03-26T10:45:52;9.73;;;8.88;;
59024;SDS011;44806;48.008;13.666;2023-03-26T10:48:55;5.60;;;5.13;;
59024;SDS011;44806;48.008;13.666;2023-03-26T10:51:41;80.57;;;32.85;;
59024;SDS011;44806;48.008;13.666;2023-03-26T10:54:15;16.55;;;15.00;;
59024;SDS011;44806;48.008;13.666;2023-03-26T10:56:51;16.77;;;13.52;;
59024;SDS011;44806;48.008;13.666;2023-03-26T10:59:20;10.82;;;9.15;;
59024;SDS011;44806;48.008;13.666;2023-03-26T11:01:53;56.30;;;31.83;;
59024;SDS011;44806;48.008;13.666;2023-03-26T11:04:32;10.63;;;9.23;;
59024;SDS011;44806;48.008;13.666;2023-03-26T11:07:10;7.78;;;7.07;;
59024;SDS011;44806;48.008;13.666;2023-03-26T11:09:47;67.53;;;42.95;;
59024;SDS011;44806;48.008;13.666;2023-03-26T11:12:21;64.88;;;36.65;;
59024;SDS011;44806;48.008;13.666;2023-03-26T11:14:57;71.85;;;30.13;;
59024;SDS011;44806;48.008;13.666;2023-03-26T11:17:38;93.15;;;53.55;;
59024;SDS011;44806;48.008;13.666;2023-03-26T11:20:15;77.45;;;46.28;;
59024;SDS011;44806;48.008;13.666;2023-03-26T11:22:52;65.60;;;31.70;;
59024;SDS011;44806;48.008;13.666;2023-03-26T11:25:30;48.38;;;27.83;;
59024;SDS011;44806;48.008;13.666;2023-03-26T11:28:20;12.38;;;11.35;;
59024;SDS011;44806;48.008;13.666;2023-03-26T11:31:00;59.13;;;32.17;;
59024;SDS011;44806;48.008;13.666;2023-03-26T11:33:34;52.70;;;28.75;;
59024;SDS011;44806;48.008;13.666;2023-03-26T11:36:05;57.00;;;32.38;;
59024;SDS011;44806;48.008;13.666;2023-03-26T11:38:37;64.15;;;31.00;;
59024;SDS011;44806;48.008;13.666;2023-03-26T11:41:10;69.55;;;45.22;;
59024;SDS011;44806;48.008;13.666;2023-03-26T11:43:40;88.07;;;56.70;;
59024;SDS011;44806;48.008;13.666;2023-03-26T11:46:09;92.90;;;45.97;;
59024;SDS011;44806;48.008;13.666;2023-03-26T11:48:40;96.80;;;50.72;;
59024;SDS011;44806;48.008;13.666;2023-03-26T11:51:11;45.42;;;28.98;;
59024;SDS011;44806;48.008;13.666;2023-03-26T11:53:45;67.22;;;28.70;;
59024;SDS011;44806;48.008;13.666;2023-03-26T11:56:14;52.67;;;31.48;;
59024;SDS011;44806;48.008;13.666;2023-03-26T11:58:53;83.07;;;44.08;;
59024;SDS011;44806;48.008;13.666;2023-03-26T12:01:26;104.60;;;56.28;;
59024;SDS011;44806;48.008;13.666;2023-03-26T12:03:56;78.93;;;36.95;;
59024;SDS011;44806;48.008;13.666;2023-03-26T12:06:28;116.45;;;56.30;;
59024;SDS011;44806;48.008;13.666;2023-03-26T12:08:58;102.18;;;52.28;;
59024;SDS011;44806;48.008;13.666;2023-03-26T12:11:26;99.22;;;59.70;;
59024;SDS011;44806;48.008;13.666;2023-03-26T12:13:57;43.28;;;29.83;;
59024;SDS011;44806;48.008;13.666;2023-03-26T12:16:26;89.93;;;48.72;;
59024;SDS011;44806;48.008;13.666;2023-03-26T12:18:57;69.88;;;45.45;;
59024;SDS011;44806;48.008;13.666;2023-03-26T12:21:26;96.07;;;51.05;;
59024;SDS011;44806;48.008;13.666;2023-03-26T12:23:54;49.40;;;42.83;;
59024;SDS011;44806;48.008;13.666;2023-03-26T12:26:35;105.40;;;55.10;;
59024;SDS011;44806;48.008;13.666;2023-03-26T12:29:07;100.03;;;56.22;;
59024;SDS011;44806;48.008;13.666;2023-03-26T12:31:46;69.63;;;48.83;;
59024;SDS011;44806;48.008;13.666;2023-03-26T12:34:17;72.20;;;47.53;;
59024;SDS011;44806;48.008;13.666;2023-03-26T12:36:47;94.72;;;54.45;;
59024;SDS011;44806;48.008;13.666;2023-03-26T12:39:28;106.72;;;61.75;;
59024;SDS011;44806;48.008;13.666;2023-03-26T12:42:00;133.95;;;69.63;;
59024;SDS011;44806;48.008;13.666;2023-03-26T12:44:32;124.00;;;70.85;;
59024;SDS011;44806;48.008;13.666;2023-03-26T12:47:07;93.50;;;59.00;;
59024;SDS011;44806;48.008;13.666;2023-03-26T12:49:42;131.00;;;73.90;;
59024;SDS011;44806;48.008;13.666;2023-03-26T12:52:17;86.90;;;39.97;;
59024;SDS011;44806;48.008;13.666;2023-03-26T12:55:04;101.35;;;50.10;;
59024;SDS011;44806;48.008;13.666;2023-03-26T12:57:42;100.45;;;53.88;;
59024;SDS011;44806;48.008;13.666;2023-03-26T13:00:25;78.35;;;35.08;;
59024;SDS011;44806;48.008;13.666;2023-03-26T13:05:56;97.63;;;48.42;;
59024;SDS011;44806;48.008;13.666;2023-03-26T13:11:34;75.20;;;27.67;;
59024;SDS011;44806;48.008;13.666;2023-03-26T13:14:14;14.48;;;13.07;;
59024;SDS011;44806;48.008;13.666;2023-03-26T13:16:51;9.80;;;9.07;;
59024;SDS011;44806;48.008;13.666;2023-03-26T13:19:22;100.80;;;49.08;;
59024;SDS011;44806;48.008;13.666;2023-03-26T13:22:01;44.47;;;18.77;;
59024;SDS011;44806;48.008;13.666;2023-03-26T13:24:40;37.40;;;22.42;;
59024;SDS011;44806;48.008;13.666;2023-03-26T13:27:19;64.35;;;45.05;;
59024;SDS011;44806;48.008;13.666;2023-03-26T13:29:58;58.75;;;24.40;;
59024;SDS011;44806;48.008;13.666;2023-03-26T13:32:32;66.57;;;39.25;;
59024;SDS011;44806;48.008;13.666;2023-03-26T13:35:13;42.20;;;24.80;;
59024;SDS011;44806;48.008;13.666;2023-03-26T13:37:49;24.63;;;16.73;;
59024;SDS011;44806;48.008;13.666;2023-03-26T13:40:23;78.28;;;40.30;;
59024;SDS011;44806;48.008;13.666;2023-03-26T13:43:03;15.43;;;12.60;;
59024;SDS011;44806;48.008;13.666;2023-03-26T13:45:53;17.48;;;12.82;;
59024;SDS011;44806;48.008;13.666;2023-03-26T13:48:24;20.35;;;15.05;;
59024;SDS011;44806;48.008;13.666;2023-03-26T13:50:56;42.22;;;21.55;;
59024;SDS011;44806;48.008;13.666;2023-03-26T13:53:31;12.35;;;11.27;;
59024;SDS011;44806;48.008;13.666;2023-03-26T13:58:37;70.45;;;41.15;;
59024;SDS011;44806;48.008;13.666;2023-03-26T14:01:08;13.52;;;12.07;;
59024;SDS011;44806;48.008;13.666;2023-03-26T14:03:44;10.50;;;9.52;;
59024;SDS011;44806;48.008;13.666;2023-03-26T14:06:27;85.65;;;35.72;;
59024;SDS011;44806;48.008;13.666;2023-03-26T14:09:01;13.38;;;11.90;;
59024;SDS011;44806;48.008;13.666;2023-03-26T14:11:35;33.85;;;20.35;;
59024;SDS011;44806;48.008;13.666;2023-03-26T14:14:12;16.00;;;14.45;;
59024;SDS011;44806;48.008;13.666;2023-03-26T14:16:44;62.13;;;28.67;;
59024;SDS011;44806;48.008;13.666;2023-03-26T14:19:26;17.33;;;13.45;;
59024;SDS011;44806;48.008;13.666;2023-03-26T14:22:18;30.45;;;17.08;;
59024;SDS011;44806;48.008;13.666;2023-03-26T14:25:06;39.10;;;20.70;;
59024;SDS011;44806;48.008;13.666;2023-03-26T14:27:49;73.43;;;33.95;;
59024;SDS011;44806;48.008;13.666;2023-03-26T14:33:35;69.00;;;38.17;;
59024;SDS011;44806;48.008;13.666;2023-03-26T14:36:15;16.25;;;12.95;;
59024;SDS011;44806;48.008;13.666;2023-03-26T14:41:45;96.20;;;37.42;;
59024;SDS011;44806;48.008;13.666;2023-03-26T14:47:15;47.15;;;24.88;;
59024;SDS011;44806;48.008;13.666;2023-03-26T14:49:47;38.03;;;21.52;;
59024;SDS011;44806;48.008;13.666;2023-03-26T14:52:37;61.00;;;26.60;;
59024;SDS011;44806;48.008;13.666;2023-03-26T15:00:46;36.55;;;20.70;;
59024;SDS011;44806;48.008;13.666;2023-03-26T15:10:08;56.33;;;22.88;;
59024;SDS011;44806;48.008;13.666;2023-03-26T15:13:02;10.43;;;9.48;;
59024;SDS011;44806;48.008;13.666;2023-03-26T15:15:47;36.47;;;24.10;;
59024;SDS011;44806;48.008;13.666;2023-03-26T15:21:59;50.40;;;26.20;;
59024;SDS011;44806;48.008;13.666;2023-03-26T15:43:12;31.75;;;18.17;;
59024;SDS011;44806;48.008;13.666;2023-03-26T15:45:40;21.13;;;13.95;;
59024;SDS011;44806;48.008;13.666;2023-03-26T15:51:23;20.40;;;11.57;;
59024;SDS011;44806;48.008;13.666;2023-03-26T15:53:59;33.67;;;17.50;;
59024;SDS011;44806;48.008;13.666;2023-03-26T15:56:47;29.65;;;19.27;;
59024;SDS011;44806;48.008;13.666;2023-03-26T15:59:28;12.82;;;11.57;;
59024;SDS011;44806;48.008;13.666;2023-03-26T16:02:19;28.98;;;18.30;;
59024;SDS011;44806;48.008;13.666;2023-03-26T16:04:52;9.05;;;8.32;;
59024;SDS011;44806;48.008;13.666;2023-03-26T16:10:13;40.05;;;17.23;;
59024;SDS011;44806;48.008;13.666;2023-03-26T16:12:52;17.83;;;11.35;;
59024;SDS011;44806;48.008;13.666;2023-03-26T16:15:39;22.60;;;16.23;;
59024;SDS011;44806;48.008;13.666;2023-03-26T16:18:17;22.88;;;14.15;;
59024;SDS011;44806;48.008;13.666;2023-03-26T16:20:53;17.42;;;15.00;;